Flight Track Log - Related Links

Times and Time Zones

All times are in EDT time to prevent confusion due to time zone crossing. See the UAL33 flight status page for this flight to view local times or setup timezone preferences in your user account.

Time Position Orientation Groundspeed Altitude Reporting Facility
EDT Latitude Longitude Course Direction KTS MPH feet Rate Location/Type
Thu 05:25:26 PM 29.9378 -95.3459 225° Southwest 194 223 1,500  Level FlightAware ADS-B
Thu 05:25:31 PM 29.9351 -95.3501 233° Southwest 195 224 1,700 2,500 Climbing FlightAware ADS-B
Thu 05:25:38 PM 29.9328 -95.3569 249° West 195 224 2,000 2,727 Climbing FlightAware ADS-B
Thu 05:25:42 PM 29.9323 -95.3608 262° West 196 226 2,200 3,000 Climbing FlightAware ADS-B
Thu 05:25:46 PM 29.9324 -95.3650 272° West 197 227 2,400 2,667 Climbing FlightAware ADS-B
Thu 05:25:51 PM 29.9335 -95.3703 283° West 197 227 2,600 2,000 Climbing FlightAware ADS-B
Thu 05:25:55 PM 29.9348 -95.3738 293° West 197 227 2,700 2,571 Climbing FlightAware ADS-B
Thu 05:25:58 PM 29.9363 -95.3765 303° West 198 228 2,900 3,000 Climbing FlightAware ADS-B
Thu 05:26:01 PM 29.9382 -95.3793 308° West 198 228 3,000 2,250 Climbing FlightAware ADS-B
Thu 05:26:06 PM 29.9418 -95.3827 321° Northwest 198 228 3,200 2,667 Climbing FlightAware ADS-B
Thu 05:26:10 PM 29.9450 -95.3848 330° Northwest 201 231 3,400 2,571 Climbing FlightAware ADS-B
Thu 05:26:13 PM 29.9478 -95.3861 338° Northwest 201 231 3,500 1,800 Climbing FlightAware ADS-B
Thu 05:26:20 PM 29.9539 -95.3880 345° North 203 234 3,700 1,500 Climbing FlightAware ADS-B
Thu 05:26:25 PM 29.9582 -95.3889 350° North 204 235 3,800 900 Climbing FlightAware ADS-B
Thu 05:26:40 PM 29.9725 -95.3913 352° North 210 242 4,000 200 Climbing FlightAware ADS-B
Thu 05:26:55 PM 29.9888 -95.3936 353° North 243 280 3,900 -78 Descending FlightAware ADS-B
Thu 05:27:57 PM 30.0642 -95.4041 353° North 270 311 3,900  Level FlightAware ADS-B
Thu 05:28:27 PM 30.1029 -95.4096 353° North 277 319 3,900 1,068 Level FlightAware ADS-B
Thu 05:29:10 PM 30.1568 -95.4178 352° North 276 318 5,200 2,222 Climbing FlightAware ADS-B
Thu 05:29:21 PM 30.1709 -95.4222 343° North 277 319 5,900 3,805 Climbing FlightAware ADS-B
Thu 05:29:51 PM 30.2051 -95.4422 331° Northwest 284 327 7,800 3,867 Climbing FlightAware ADS-B
Thu 05:30:06 PM 30.2229 -95.4533 332° Northwest 283 326 8,800 3,103 Climbing FlightAware ADS-B
Thu 05:30:49 PM 30.2739 -95.4860 331° Northwest 318 366 10,800 3,000 Climbing FlightAware ADS-B
Thu 05:31:52 PM 30.3598 -95.5402 331° Northwest 342 394 14,100 2,809 Climbing FlightAware ADS-B
Thu 05:32:23 PM 30.4034 -95.5682 331° Northwest 368 423 15,200 1,672 Climbing FlightAware ADS-B
Thu 05:32:53 PM 30.4509 -95.5985 331° Northwest 399 459 15,800 1,440 Climbing FlightAware ADS-B
Thu 05:34:28 PM 30.6237 -95.6991 335° Northwest 465 535 18,200 1,671 Climbing FlightAware ADS-B
Thu 05:35:31 PM 30.7492 -95.7662 335° Northwest 485 558 20,200 1,823 Climbing FlightAware ADS-B
Thu 05:38:25 PM 31.1163 -95.9602 339° North 517 595 25,400 1,688 Climbing FlightAware ADS-B
Thu 05:39:54 PM 31.3292 -96.0158 349° North 534 615 27,600 1,307 Climbing FlightAware ADS-B
Thu 05:42:42 PM 31.7315 -96.0752 356° North 502 578 31,000 1,441 Climbing FlightAware ADS-B
Thu 05:43:18 PM 31.8121 -96.0823 356° North 479 551 32,500 1,592 Climbing FlightAware ADS-B
Thu 05:45:09 PM 32.0590 -96.1040 356° North 490 564 34,900 1,300 Climbing FlightAware ADS-B
Thu 05:45:18 PM 32.0822 -96.1056 357° North 487 560 35,100 1,902 Climbing FlightAware ADS-B
Thu 05:45:50 PM 32.1530 -96.1120 356° North 482 555 36,200 1,760 Climbing FlightAware ADS-B
Thu 05:46:33 PM 32.2470 -96.1200 356° North 476 548 37,300 1,446 Climbing FlightAware ADS-B
Thu 05:47:13 PM 32.3350 -96.1280 356° North 473 544 38,200 783 Climbing FlightAware ADS-B
Thu 05:50:00 PM 32.6890 -96.1590 356° North 464 534 40,000 509 Climbing FlightAware ADS-B
Thu 05:50:45 PM 32.7850 -96.1670 356° North 467 537 40,000  Level FlightAware ADS-B
Thu 05:51:28 PM 32.8780 -96.1750 356° North 465 535 40,000  Level FlightAware ADS-B
Thu 05:52:08 PM 32.9640 -96.1830 356° North 465 535 40,000  Level FlightAware ADS-B
Thu 05:52:48 PM 33.0500 -96.1910 356° North 468 539 40,000  Level FlightAware ADS-B
Thu 05:53:32 PM 33.1460 -96.1990 356° North 472 543 40,000  Level FlightAware ADS-B
Thu 05:54:14 PM 33.2370 -96.2070 356° North 472 543 40,000  Level FlightAware ADS-B
Thu 05:54:57 PM 33.3300 -96.2150 356° North 469 540 40,000  Level FlightAware ADS-B
Thu 05:55:33 PM 33.4080 -96.2220 356° North 468 539 40,000  Level FlightAware ADS-B
Thu 05:56:15 PM 33.4980 -96.2300 356° North 466 536 40,000  Level FlightAware ADS-B
Thu 05:56:41 PM 33.5530 -96.2260 North 473 544 40,000 290 Level FlightAware ADS-B
Thu 05:57:17 PM 33.6270 -96.2040 14° North 477 549 40,300 692 Climbing FlightAware ADS-B
Thu 05:57:59 PM 33.7120 -96.1750 16° North 471 542 40,900 519 Climbing FlightAware ADS-B
Thu 05:58:38 PM 33.8030 -96.1440 16° North 466 536 41,000 72 Climbing FlightAware ADS-B
Thu 05:59:22 PM 33.8910 -96.1140 16° North 465 535 41,000  Level FlightAware ADS-B
Thu 06:00:06 PM 33.9810 -96.0830 16° North 467 537 41,000  Level FlightAware ADS-B
Thu 06:00:42 PM 34.0580 -96.0570 16° North 468 539 41,000  Level FlightAware ADS-B
Thu 06:01:26 PM 34.1510 -96.0250 16° North 467 537 41,000  Level FlightAware ADS-B
Thu 06:02:13 PM 34.2490 -95.9910 16° North 469 540 41,000  Level FlightAware ADS-B
Thu 06:02:45 PM 34.3160 -95.9680 16° North 469 540 41,000  Level FlightAware ADS-B
Thu 06:03:27 PM 34.4030 -95.9380 16° North 470 541 41,000  Level FlightAware ADS-B
Thu 06:04:11 PM 34.4930 -95.9060 16° North 472 543 41,000  Level FlightAware ADS-B
Thu 06:04:44 PM 34.5660 -95.8810 16° North 473 544 41,000  Level FlightAware ADS-B
Thu 06:05:28 PM 34.6570 -95.8500 16° North 475 547 41,000  Level FlightAware ADS-B
Thu 06:06:08 PM 34.7400 -95.8210 16° North 475 547 41,000  Level FlightAware ADS-B
Thu 06:07:19 PM 34.8820 -95.7590 20° North 481 554 41,000  Level FlightAware ADS-B
Thu 06:07:57 PM 34.9490 -95.6660 49° Northeast 499 574 41,000  Level FlightAware ADS-B
Thu 06:08:51 PM 35.0290 -95.5740 43° Northeast 500 575 41,000  Level FlightAware ADS-B
Thu 06:09:27 PM 35.0810 -95.5150 43° Northeast 500 575 41,000  Level FlightAware ADS-B
Thu 06:10:12 PM 35.1730 -95.4050 44° Northeast 504 580 41,000  Level FlightAware ADS-B
Thu 06:10:58 PM 35.2530 -95.3110 44° Northeast 504 580 41,000  Level FlightAware ADS-B
Thu 06:11:43 PM 35.3270 -95.2240 44° Northeast 504 580 41,000  Level FlightAware ADS-B
Thu 06:12:26 PM 35.3980 -95.1400 44° Northeast 503 579 41,000  Level FlightAware ADS-B
Thu 06:13:04 PM 35.4630 -95.0640 44° Northeast 501 577 41,000  Level FlightAware ADS-B
Thu 06:13:45 PM 35.5320 -94.9820 44° Northeast 501 577 41,000  Level FlightAware ADS-B
Thu 06:14:29 PM 35.6060 -94.8930 44° Northeast 502 578 41,000  Level FlightAware ADS-B
Thu 06:15:17 PM 35.6850 -94.7990 44° Northeast 502 578 41,000  Level FlightAware ADS-B
Thu 06:15:57 PM 35.7510 -94.7200 44° Northeast 502 578 41,000  Level FlightAware ADS-B
Thu 06:16:33 PM 35.8110 -94.6480 44° Northeast 503 579 41,000  Level FlightAware ADS-B
Thu 06:17:13 PM 35.8780 -94.5680 44° Northeast 503 579 41,000  Level FlightAware ADS-B
Thu 06:17:55 PM 35.9480 -94.4830 44° Northeast 504 580 41,000  Level FlightAware ADS-B
Thu 06:18:33 PM 36.0120 -94.4060 44° Northeast 504 580 41,000  Level FlightAware ADS-B
Thu 06:19:15 PM 36.0820 -94.3220 44° Northeast 503 579 41,000  Level FlightAware ADS-B
Thu 06:19:55 PM 36.1470 -94.2420 45° Northeast 504 580 41,000  Level FlightAware ADS-B
Thu 06:20:39 PM 36.2220 -94.1530 44° Northeast 504 580 41,000  Level FlightAware ADS-B
Thu 06:21:17 PM 36.2920 -94.0900 36° Northeast 495 570 41,000  Level FlightAware ADS-B
Thu 06:21:57 PM 36.3730 -94.0330 30° Northeast 494 568 41,000  Level FlightAware ADS-B
Thu 06:22:43 PM 36.4640 -93.9690 29° Northeast 493 567 41,000  Level FlightAware ADS-B
Thu 06:23:19 PM 36.5350 -93.9190 29° Northeast 493 567 41,000  Level FlightAware ADS-B
Thu 06:23:59 PM 36.6140 -93.8630 30° Northeast 494 568 41,000  Level FlightAware ADS-B
Thu 06:24:43 PM 36.7030 -93.8010 29° Northeast 494 568 41,000  Level FlightAware ADS-B
Thu 06:25:17 PM 36.7690 -93.7540 30° Northeast 492 566 41,000  Level FlightAware ADS-B
Thu 06:26:01 PM 36.8560 -93.6920 30° Northeast 491 565 41,000  Level FlightAware ADS-B
Thu 06:26:41 PM 36.9360 -93.6350 30° Northeast 491 565 41,000  Level FlightAware ADS-B
Thu 06:27:22 PM 37.0130 -93.5800 30° Northeast 490 564 41,000  Level FlightAware ADS-B
Thu 06:28:05 PM 37.1020 -93.5170 29° Northeast 493 567 41,000  Level FlightAware ADS-B
Thu 06:28:45 PM 37.1790 -93.4620 30° Northeast 491 565 41,000  Level FlightAware ADS-B
Thu 06:29:29 PM 37.2660 -93.3990 30° Northeast 490 564 41,000  Level FlightAware ADS-B
Thu 06:30:09 PM 37.3440 -93.3420 30° Northeast 493 567 41,000  Level FlightAware ADS-B
Thu 06:30:49 PM 37.4200 -93.2760 35° Northeast 494 568 41,000  Level FlightAware ADS-B
Thu 06:31:35 PM 37.5040 -93.1970 37° Northeast 491 565 41,000  Level FlightAware ADS-B
Thu 06:32:15 PM 37.5760 -93.1310 36° Northeast 492 566 41,000  Level FlightAware ADS-B
Thu 06:32:57 PM 37.6550 -93.0580 36° Northeast 493 567 41,000  Level FlightAware ADS-B
Thu 06:33:42 PM 37.7360 -92.9820 37° Northeast 494 568 41,000  Level FlightAware ADS-B
Thu 06:34:21 PM 37.8080 -92.9150 36° Northeast 494 568 41,000  Level FlightAware ADS-B
Thu 06:35:05 PM 37.8880 -92.8400 36° Northeast 494 568 41,000  Level FlightAware ADS-B
Thu 06:35:45 PM 37.9630 -92.7700 36° Northeast 496 571 41,000  Level FlightAware ADS-B
Thu 06:36:31 PM 38.0480 -92.6910 36° Northeast 493 567 41,000  Level FlightAware ADS-B
Thu 06:37:11 PM 38.1200 -92.6220 37° Northeast 490 564 41,000  Level FlightAware ADS-B
Thu 06:37:47 PM 38.1860 -92.5600 36° Northeast 491 565 41,000  Level FlightAware ADS-B
Thu 06:38:27 PM 38.2590 -92.4910 37° Northeast 491 565 41,000  Level FlightAware ADS-B
Thu 06:39:11 PM 38.3380 -92.4160 37° Northeast 491 565 41,000  Level FlightAware ADS-B
Thu 06:39:45 PM 38.4000 -92.3570 37° Northeast 491 565 41,000  Level FlightAware ADS-B
Thu 06:40:27 PM 38.4680 -92.2930 36° Northeast 492 566 41,000  Level FlightAware ADS-B
Thu 06:41:01 PM 38.5210 -92.2440 36° Northeast 492 566 41,000  Level FlightAware ADS-B
Thu 06:41:45 PM 38.6130 -92.1540 37° Northeast 492 566 41,000  Level FlightAware ADS-B
Thu 06:42:32 PM 38.6870 -92.0860 36° Northeast 492 566 41,000  Level FlightAware ADS-B
Thu 06:43:10 PM 38.7460 -92.0310 36° Northeast 492 566 41,000  Level FlightAware ADS-B
Thu 06:43:56 PM 38.8560 -91.9190 38° Northeast 489 563 41,000  Level FlightAware ADS-B
Thu 06:44:49 PM 38.9430 -91.8350 37° Northeast 490 564 41,000  Level FlightAware ADS-B
Thu 06:45:29 PM 39.0190 -91.7600 37° Northeast 489 563 41,000  Level FlightAware ADS-B
Thu 06:46:08 PM 39.0910 -91.6900 37° Northeast 487 560 41,000  Level FlightAware ADS-B
Thu 06:46:58 PM 39.1710 -91.6120 37° Northeast 488 562 41,000 -64 Level FlightAware ADS-B
Thu 06:47:42 PM 39.2630 -91.5210 37° Northeast 489 563 40,900 -72 Descending FlightAware ADS-B
Thu 06:48:21 PM 39.3240 -91.4630 36° Northeast 488 562 40,900  Level FlightAware ADS-B
Thu 06:49:07 PM 39.3940 -91.3940 37° Northeast 488 562 40,900 -2,222 Level FlightAware ADS-B
Thu 06:49:42 PM 39.4770 -91.3100 38° Northeast 497 572 37,900 -3,266 Descending FlightAware ADS-B
Thu 06:50:26 PM 39.5590 -91.2300 37° Northeast 505 581 36,600 -1,253 Descending FlightAware ADS-B
Thu 06:51:13 PM 39.6390 -91.1500 38° Northeast 507 583 36,000 -434 Descending FlightAware ADS-B
Thu 06:51:49 PM 39.6960 -91.0940 37° Northeast 507 583 36,000 -800 Level FlightAware ADS-B
Thu 06:52:28 PM 39.7860 -91.0020 38° Northeast 512 589 35,000 -750 Descending FlightAware ADS-B
Thu 06:53:09 PM 39.8650 -90.9230 37° Northeast 513 590 35,000  Level FlightAware ADS-B
Thu 06:53:45 PM 39.9330 -90.8550 37° Northeast 513 590 35,000  Level FlightAware ADS-B
Thu 06:54:19 PM 39.9950 -90.7920 38° Northeast 512 589 35,000 -141 Level FlightAware ADS-B
Thu 06:55:10 PM 40.0880 -90.6970 38° Northeast 509 586 34,800 -929 Descending FlightAware ADS-B
Thu 06:55:43 PM 40.1510 -90.6340 37° Northeast 503 579 33,700 -1,333 Descending FlightAware ADS-B
Thu 06:56:31 PM 40.2390 -90.5440 38° Northeast 508 585 33,000 -467 Descending FlightAware ADS-B
Thu 06:57:13 PM 40.3170 -90.4650 38° Northeast 508 585 33,000 -286 Level FlightAware ADS-B
Thu 06:57:55 PM 40.3950 -90.3850 38° Northeast 504 580 32,600 -1,247 Descending FlightAware ADS-B
Thu 06:58:30 PM 40.4580 -90.3200 38° Northeast 495 570 31,400 -2,074 Descending FlightAware ADS-B
Thu 06:59:16 PM 40.5400 -90.2350 38° Northeast 487 560 29,800 -1,605 Descending FlightAware ADS-B
Thu 06:59:56 PM 40.6100 -90.1630 38° Northeast 469 540 29,100 -1,000 Descending FlightAware ADS-B
Thu 07:00:28 PM 40.6650 -90.1060 38° Northeast 464 534 28,600 -923 Descending FlightAware ADS-B
Thu 07:01:14 PM 40.7410 -90.0270 38° Northeast 471 542 27,900 -1,000 Descending FlightAware ADS-B
Thu 07:01:52 PM 40.8080 -89.9580 38° Northeast 469 540 27,200 -929 Descending FlightAware ADS-B
Thu 07:02:38 PM 40.8810 -89.8810 39° Northeast 465 535 26,600 -907 Descending FlightAware ADS-B
Thu 07:03:18 PM 40.9510 -89.8080 38° Northeast 456 525 25,900 -951 Descending FlightAware ADS-B
Thu 07:04:00 PM 41.0200 -89.7350 39° Northeast 453 521 25,300 -878 Descending FlightAware ADS-B
Thu 07:04:40 PM 41.0850 -89.6670 38° Northeast 446 513 24,700 -889 Descending FlightAware ADS-B
Thu 07:05:21 PM 41.1470 -89.5960 41° Northeast 447 514 24,100 -538 Descending FlightAware ADS-B
Thu 07:05:58 PM 41.1900 -89.5120 56° Northeast 454 522 24,000 -987 Descending FlightAware ADS-B
Thu 07:06:40 PM 41.2330 -89.4070 61° Northeast 447 514 22,800 -2,122 Descending FlightAware ADS-B
Thu 07:07:20 PM 41.2720 -89.3090 62° Northeast 452 520 21,100 -2,231 Descending FlightAware ADS-B
Thu 07:07:58 PM 41.3100 -89.2160 61° Northeast 441 507 19,900 -1,950 Descending FlightAware ADS-B
Thu 07:08:40 PM 41.3490 -89.1190 62° Northeast 433 498 18,500 -2,415 Descending FlightAware ADS-B
Thu 07:09:20 PM 41.3870 -89.0240 62° Northeast 432 497 16,600 -2,714 Descending FlightAware ADS-B
Thu 07:10:04 PM 41.4280 -88.9200 62° Northeast 426 490 14,700 -2,523 Descending FlightAware ADS-B
Thu 07:10:48 PM 41.4680 -88.8200 62° Northeast 417 480 12,900 -2,429 Descending FlightAware ADS-B
Thu 07:11:28 PM 41.5040 -88.7290 62° Northeast 407 468 11,300 -1,412 Descending FlightAware ADS-B
Thu 07:12:13 PM 41.5400 -88.6370 62° Northeast 363 418 10,900 -316 Descending FlightAware ADS-B
Thu 07:12:44 PM 41.5640 -88.5760 62° Northeast 358 412 10,900  Level FlightAware ADS-B
Thu 07:13:28 PM 41.5990 -88.4890 62° Northeast 358 412 10,900  Level FlightAware ADS-B
Thu 07:14:10 PM 41.6400 -88.4130 54° Northeast 357 411 10,900  Level FlightAware ADS-B
Thu 07:14:46 PM 41.6760 -88.3510 52° Northeast 358 412 10,900 -316 Level FlightAware ADS-B
Thu 07:15:26 PM 41.7180 -88.2810 51° Northeast 351 404 10,500 -794 Descending FlightAware ADS-B
Thu 07:15:54 PM 41.7440 -88.2350 53° Northeast 326 375 10,000 -818 Descending FlightAware ADS-B
Thu 07:16:10 PM 41.7580 -88.2110 52° Northeast 307 353 9,900 -500 Descending FlightAware ADS-B
Thu 07:16:30 PM 41.7750 -88.1810 53° Northeast 296 341 9,700 -875 Descending FlightAware ADS-B
Thu 07:16:58 PM 41.7990 -88.1410 51° Northeast 290 334 9,200 -1,071 Descending FlightAware ADS-B
Thu 07:17:26 PM 41.8220 -88.1020 52° Northeast 285 328 8,700 -964 Descending FlightAware ADS-B
Thu 07:17:54 PM 41.8430 -88.0640 53° Northeast 260 299 8,300 -873 Descending FlightAware ADS-B
Thu 07:18:21 PM 41.8600 -88.0330 54° Northeast 240 276 7,900 -873 Descending FlightAware ADS-B
Thu 07:18:49 PM 41.8780 -88.0000 54° Northeast 232 267 7,500 -955 Descending FlightAware ADS-B
Thu 07:19:05 PM 41.8840 -87.9760 71° East 237 273 7,200 -818 Descending FlightAware ADS-B
Thu 07:19:33 PM 41.8840 -87.9360 90° East 233 268 6,900 -333 Descending FlightAware ADS-B
Thu 07:19:59 PM 41.8840 -87.9010 90° East 210 242 6,900  Level FlightAware ADS-B
Thu 07:20:39 PM 41.8840 -87.8500 90° East 205 236 6,900  Level FlightAware ADS-B
Thu 07:20:49 PM 41.8840 -87.8380 90° East 206 237 6,900 -615 Level FlightAware ADS-B
Thu 07:21:18 PM 41.8840 -87.7990 90° East 205 236 6,500 -842 Descending FlightAware ADS-B
Thu 07:21:46 PM 41.8840 -87.7630 90° East 200 230 6,100 -811 Descending FlightAware ADS-B
Thu 07:21:55 PM 41.8840 -87.7510 90° East 199 229 6,000 -923 Descending FlightAware ADS-B
Thu 07:22:25 PM 41.8840 -87.7150 90° East 203 234 5,500 -1,119 Descending FlightAware ADS-B
Thu 07:22:54 PM 41.8910 -87.6810 75° East 203 234 4,900 -1,227 Descending FlightAware ADS-B
Thu 07:23:09 PM 41.9050 -87.6730 23° Northeast 199 229 4,600 -1,017 Descending FlightAware ADS-B
Thu 07:23:53 PM 41.9390 -87.6850 345° North 185 213 3,900 -1,000 Descending FlightAware ADS-B
Thu 07:24:21 PM 41.9510 -87.7120 301° West 177 204 3,400 -1,179 Descending FlightAware ADS-B
Thu 07:24:49 PM 41.9630 -87.7390 301° West 176 203 2,800 -1,309 Descending FlightAware ADS-B
Thu 07:25:16 PM 41.9690 -87.7670 286° West 173 199 2,200 -1,149 Descending FlightAware ADS-B
Thu 07:25:36 PM 41.9690 -87.7870 270° West 172 198 1,900 -842 Descending FlightAware ADS-B
Thu 07:26:13 PM 41.9690 -87.8250 270° West 149 171 1,400 -871 Descending FlightAware ADS-B
Thu 07:26:38 PM 41.9690 -87.8490 270° West 143 165 1,000 -794 Descending FlightAware ADS-B
Thu 07:27:21 PM 41.9690 -87.8860 270° West 139 160 500 -435 Descending FlightAware ADS-B
Thu 07:27:47 PM 41.9690 -87.9050 270° West 139 160 500  Level FlightAware ADS-B

Login

Don't have an account? Register now (free) for customized features, flight alerts, and more!